Time;durP1;ratioP1;P1;durP2;ratioP2;P2;SDS_P1;SDS_P2;PMS_P1;PMS_P2;Temp;Humidity;BMP_temperature;BMP_pressure;BME280_temperature;BME280_humidity;BME280_pressure;Samples;Min_cycle;Max_cycle;Signal;HPM_P1;HPM_P2
2022/07/25 00:00:05;;;;;;;9.70;8.70;;;21.30;99.90;;;;;;5079479;28;20223;-84
2022/07/25 00:02:30;;;;;;;10.60;9.60;;;21.30;99.90;;;;;;5080743;28;20177;-84
2022/07/25 00:04:56;;;;;;;15.70;10.80;;;21.30;99.90;;;;;;5083488;28;20469;-85
2022/07/25 00:07:21;;;;;;;14.00;10.23;;;21.20;99.90;;;;;;5081995;28;20180;-86
2022/07/25 00:09:47;;;;;;;11.20;9.47;;;21.20;99.90;;;;;;5082515;28;20215;-86
2022/07/25 00:12:12;;;;;;;11.77;10.00;;;22.80;99.90;;;;;;5087524;28;20887;-86
2022/07/25 00:14:38;;;;;;;14.53;10.30;;;21.20;99.90;;;;;;5085671;28;20699;-85
2022/07/25 00:17:03;;;;;;;10.30;9.10;;;21.10;99.90;;;;;;5078540;28;20190;-84
2022/07/25 00:19:29;;;;;;;11.60;10.40;;;21.00;99.90;;;;;;5076112;28;20203;-84
2022/07/25 00:21:54;;;;;;;10.37;9.37;;;20.90;99.90;;;;;;5077843;28;20192;-87
2022/07/25 00:24:20;;;;;;;12.70;10.27;;;20.90;99.90;;;;;;5084397;28;20180;-87
2022/07/25 00:26:45;;;;;;;10.50;9.40;;;20.80;99.90;;;;;;5086765;28;20239;-86
2022/07/25 00:29:11;;;;;;;14.00;9.63;;;20.70;99.90;;;;;;5083909;28;20222;-87
2022/07/25 00:31:36;;;;;;;15.87;9.57;;;20.70;99.90;;;;;;5078032;28;20192;-87
2022/07/25 00:34:02;;;;;;;11.27;9.70;;;20.60;99.90;;;;;;5079111;28;20177;-87
2022/07/25 00:36:27;;;;;;;12.60;11.23;;;20.60;99.90;;;;;;5093287;28;20190;-86
2022/07/25 00:38:53;;;;;;;12.00;10.73;;;20.60;99.90;;;;;;5085677;28;20204;-84
2022/07/25 00:41:19;;;;;;;11.40;10.20;;;20.60;99.90;;;;;;5079006;28;20202;-84
2022/07/25 00:43:45;;;;;;;13.13;11.07;;;20.60;99.90;;;;;;5086223;28;20179;-86
2022/07/25 00:46:16;;;;;;;12.07;10.80;;;20.60;99.90;;;;;;5085353;28;20974;-86
2022/07/25 00:48:42;;;;;;;13.83;10.40;;;20.60;99.90;;;;;;5083140;28;21047;-86
2022/07/25 00:51:09;;;;;;;12.83;11.03;;;20.60;99.90;;;;;;5076493;28;20437;-84
2022/07/25 00:53:36;;;;;;;17.10;11.97;;;20.50;99.90;;;;;;5093788;28;20434;-85
2022/07/25 00:56:03;;;;;;;14.43;11.43;;;20.40;99.90;;;;;;5078859;28;20465;-85
2022/07/25 00:58:29;;;;;;;14.70;11.03;;;20.30;99.90;;;;;;5081424;28;20457;-86
2022/07/25 01:00:55;;;;;;;13.50;11.27;;;20.20;99.90;;;;;;5080819;28;20881;-86
2022/07/25 01:03:20;;;;;;;13.90;12.23;;;20.10;99.90;;;;;;5080514;28;20635;-85
2022/07/25 01:05:46;;;;;;;15.20;11.70;;;20.10;99.90;;;;;;5079082;28;20238;-85
2022/07/25 01:08:12;;;;;;;11.97;10.77;;;20.10;99.90;;;;;;5081496;28;20184;-86
2022/07/25 01:10:38;;;;;;;13.63;12.23;;;20.10;99.90;;;;;;5020346;22;20244;-83
2022/07/25 01:13:04;;;;;;;14.03;11.60;;;20.10;99.90;;;;;;4962677;28;21519;-83
2022/07/25 01:15:29;;;;;;;18.50;11.70;;;20.10;99.90;;;;;;4965390;28;20193;-84
2022/07/25 01:17:55;;;;;;;15.47;12.10;;;20.10;99.90;;;;;;4961324;28;20191;-84
2022/07/25 01:20:26;;;;;;;14.00;11.63;;;20.10;99.90;;;;;;4954335;28;20803;-85
2022/07/25 01:22:52;;;;;;;17.10;12.03;;;20.10;99.90;;;;;;4956732;28;20214;-85
2022/07/25 01:25:18;;;;;;;13.87;11.90;;;21.00;99.90;;;;;;4962026;28;20511;-83
2022/07/25 01:27:45;;;;;;;14.17;12.27;;;20.10;99.90;;;;;;4950438;28;20451;-85
2022/07/25 01:30:13;;;;;;;16.53;11.93;;;20.10;99.90;;;;;;4955878;28;20853;-87
2022/07/25 01:32:39;;;;;;;15.13;12.87;;;20.20;99.90;;;;;;4964275;28;20508;-83
2022/07/25 01:35:06;;;;;;;18.90;11.63;;;20.20;99.90;;;;;;4968357;28;20439;-88
2022/07/25 01:37:32;;;;;;;12.23;10.93;;;;;;;;;;4955838;28;20444;-88
2022/07/25 01:39:58;;;;;;;13.87;12.33;;;20.20;99.90;;;;;;4954046;28;21622;-85
2022/07/25 01:42:23;;;;;;;11.60;9.97;;;20.30;99.90;;;;;;4953047;28;20571;-83
2022/07/25 01:44:49;;;;;;;13.73;11.03;;;20.60;99.90;;;;;;4960075;28;20193;-83
2022/07/25 01:47:16;;;;;;;12.83;10.80;;;21.00;99.90;;;;;;4961734;28;20211;-86
2022/07/25 01:49:42;;;;;;;13.90;10.23;;;21.30;99.90;;;;;;4955439;28;20277;-86
2022/07/25 01:52:07;;;;;;;17.33;12.70;;;21.40;99.90;;;;;;4958474;28;20459;-84
2022/07/25 01:54:33;;;;;;;14.87;11.73;;;24.50;99.90;;;;;;4950965;28;20884;-86
2022/07/25 01:56:58;;;;;;;14.77;11.07;;;21.30;99.90;;;;;;4952116;28;20202;-84
2022/07/25 01:59:24;;;;;;;14.37;10.97;;;22.10;99.90;;;;;;4958502;28;20204;-82
2022/07/25 02:01:49;;;;;;;11.40;10.20;;;22.00;99.90;;;;;;4965341;28;20212;-85
2022/07/25 02:04:15;;;;;;;11.77;10.17;;;22.60;99.90;;;;;;4970136;28;20188;-86
2022/07/25 02:06:40;;;;;;;12.03;10.83;;;22.60;99.90;;;;;;4957280;28;20224;-87
2022/07/25 02:09:07;;;;;;;11.10;9.90;;;22.70;99.90;;;;;;4961967;28;20188;-84
2022/07/25 02:11:33;;;;;;;11.53;10.20;;;22.90;99.90;;;;;;4952464;28;20226;-84
2022/07/25 02:13:59;;;;;;;10.87;9.73;;;23.00;99.90;;;;;;4963759;28;20810;-83
2022/07/25 02:16:24;;;;;;;15.30;10.57;;;22.90;99.90;;;;;;4950591;28;20443;-84
2022/07/25 02:18:50;;;;;;;12.03;10.13;;;23.00;99.90;;;;;;4960088;28;20306;-85
2022/07/25 02:21:16;;;;;;;11.97;10.63;;;23.80;99.90;;;;;;4961552;28;20215;-82
2022/07/25 02:23:43;;;;;;;11.20;9.07;;;22.90;99.90;;;;;;4956104;28;20211;-87
2022/07/25 02:26:09;;;;;;;12.40;10.10;;;23.40;99.90;;;;;;4950383;28;20936;-85
2022/07/25 02:28:35;;;;;;;11.63;10.40;;;24.30;99.90;;;;;;4950170;28;20444;-84
2022/07/25 02:31:00;;;;;;;11.40;9.63;;;23.20;99.90;;;;;;4962662;28;20527;-86
2022/07/25 02:33:26;;;;;;;12.90;10.40;;;22.90;99.90;;;;;;4965373;28;20683;-86
2022/07/25 02:35:51;;;;;;;10.67;9.47;;;22.90;99.90;;;;;;4957872;28;20192;-85
2022/07/25 02:38:20;;;;;;;11.37;10.00;;;22.80;99.90;;;;;;4954589;28;20196;-88
2022/07/25 02:40:46;;;;;;;13.87;10.87;;;22.80;99.90;;;;;;4955293;28;20231;-84
2022/07/25 02:43:12;;;;;;;13.17;9.87;;;22.80;99.90;;;;;;4955460;28;20452;-85
2022/07/25 02:45:38;;;;;;;12.40;11.00;;;22.70;99.90;;;;;;4963703;28;20524;-83
2022/07/25 02:48:04;;;;;;;12.57;11.20;;;22.70;99.90;;;;;;4958098;28;20185;-84
2022/07/25 02:50:30;;;;;;;15.80;10.57;;;22.30;99.90;;;;;;4957615;28;20447;-84
2022/07/25 02:52:55;;;;;;;15.10;11.10;;;22.30;99.90;;;;;;4962965;28;20184;-84
2022/07/25 02:55:21;;;;;;;17.53;11.93;;;22.20;99.90;;;;;;4950541;28;20192;-88
2022/07/25 02:57:46;;;;;;;18.97;10.93;;;22.10;99.90;;;;;;4953355;28;20188;-85
2022/07/25 03:00:13;;;;;;;12.27;11.03;;;21.80;99.90;;;;;;4942065;28;20224;-84
2022/07/25 03:02:39;;;;;;;12.57;10.83;;;21.60;99.90;;;;;;4951682;28;20227;-87
2022/07/25 03:05:09;;;;;;;20.13;13.00;;;21.40;99.90;;;;;;4953196;28;20626;-83
2022/07/25 03:07:35;;;;;;;12.93;11.57;;;21.30;99.90;;;;;;4944269;28;20192;-87
2022/07/25 03:10:01;;;;;;;12.50;11.20;;;21.30;99.90;;;;;;4950696;28;20448;-88
2022/07/25 03:12:27;;;;;;;12.60;11.30;;;21.30;99.90;;;;;;4951707;28;20486;-83
2022/07/25 03:14:53;;;;;;;13.47;11.07;;;21.50;99.90;;;;;;4959140;28;20664;-83
2022/07/25 03:17:18;;;;;;;14.33;10.93;;;22.10;99.90;;;;;;4958039;28;20798;-86
2022/07/25 03:19:44;;;;;;;12.70;11.20;;;21.70;99.90;;;;;;4952301;28;20504;-84
2022/07/25 03:22:09;;;;;;;12.73;11.43;;;22.10;99.90;;;;;;4954051;28;20209;-86
2022/07/25 03:24:38;;;;;;;11.13;10.00;;;21.80;99.90;;;;;;4954656;28;20185;-86
2022/07/25 03:27:03;;;;;;;11.80;10.60;;;21.70;99.90;;;;;;4952485;28;20208;-86
2022/07/25 03:29:29;;;;;;;11.60;10.40;;;21.80;99.90;;;;;;4957431;28;20427;-85
2022/07/25 03:31:54;;;;;;;11.00;9.90;;;21.80;99.90;;;;;;4959098;28;20223;-88
2022/07/25 03:34:20;;;;;;;14.03;9.73;;;22.00;99.90;;;;;;4973425;28;20176;-82
2022/07/25 03:36:45;;;;;;;11.43;10.23;;;22.20;99.90;;;;;;4962396;28;20246;-87
2022/07/25 03:39:13;;;;;;;13.07;10.57;;;22.30;99.90;;;;;;4952768;28;20189;-84
2022/07/25 03:41:38;;;;;;;15.50;11.90;;;22.40;99.90;;;;;;4959344;28;20238;-84
2022/07/25 03:44:04;;;;;;;12.53;11.13;;;22.30;99.90;;;;;;4961856;28;20964;-86
2022/07/25 03:46:30;;;;;;;10.60;9.50;;;22.50;99.90;;;;;;4957420;28;20238;-86
2022/07/25 03:48:55;;;;;;;17.30;10.53;;;22.50;99.90;;;;;;4951674;28;20599;-84
2022/07/25 03:51:21;;;;;;;12.60;11.33;;;22.60;99.90;;;;;;4959983;28;20211;-84
2022/07/25 03:54:02;;;;;;;13.70;10.77;;;;;;;;;;4970031;28;20192;-86
2022/07/25 03:56:40;;;;;;;12.83;11.30;;;22.70;99.90;;;;;;4952766;28;20183;-86
2022/07/25 03:59:07;;;;;;;11.70;9.90;;;22.60;99.90;;;;;;4961079;28;21193;-85
2022/07/25 04:01:33;;;;;;;13.10;10.93;;;22.60;99.90;;;;;;4964962;28;20471;-89
2022/07/25 04:04:00;;;;;;;11.73;8.70;;;22.60;99.90;;;;;;4973675;28;20447;-86
2022/07/25 04:06:26;;;;;;;12.40;10.80;;;22.70;99.90;;;;;;4967216;28;20483;-85
2022/07/25 04:08:53;;;;;;;14.40;10.63;;;23.30;99.90;;;;;;4950232;28;20446;-86
2022/07/25 04:11:18;;;;;;;13.20;9.97;;;22.80;99.90;;;;;;4941830;28;20480;-85
2022/07/25 04:13:44;;;;;;;11.70;9.73;;;22.80;99.90;;;;;;4954025;28;20427;-85
2022/07/25 04:16:10;;;;;;;11.50;10.00;;;22.80;99.90;;;;;;4944710;28;22593;-83
2022/07/25 04:18:36;;;;;;;10.83;9.83;;;22.80;99.90;;;;;;4947554;28;20196;-83
2022/07/25 04:21:03;;;;;;;13.50;11.83;;;22.80;99.90;;;;;;4941900;28;20460;-85
2022/07/25 04:23:30;;;;;;;11.37;9.73;;;22.90;99.90;;;;;;4948946;28;20184;-84
2022/07/25 04:25:56;;;;;;;11.83;10.10;;;23.00;99.90;;;;;;4945972;28;20494;-86
2022/07/25 04:28:23;;;;;;;15.33;11.17;;;23.00;99.90;;;;;;4949395;28;20464;-86
2022/07/25 04:30:49;;;;;;;13.40;11.07;;;23.40;99.90;;;;;;4945757;28;20485;-86
2022/07/25 04:33:15;;;;;;;15.93;9.73;;;23.20;99.90;;;;;;4944145;28;20446;-86
2022/07/25 04:35:41;;;;;;;12.93;11.53;;;23.20;99.90;;;;;;4956967;28;20448;-85
2022/07/25 04:38:06;;;;;;;12.63;10.80;;;23.90;99.90;;;;;;4938244;28;20436;-87
2022/07/25 04:40:32;;;;;;;15.70;11.50;;;26.60;99.90;;;;;;4947143;28;20184;-88
2022/07/25 04:42:57;;;;;;;15.33;11.33;;;25.90;99.90;;;;;;4945626;28;20561;-85
2022/07/25 04:45:23;;;;;;;14.70;10.30;;;26.50;99.90;;;;;;4942790;28;20351;-85
2022/07/25 04:47:49;;;;;;;12.43;10.13;;;27.00;99.90;;;;;;4945079;28;20204;-86
2022/07/25 04:50:16;;;;;;;11.63;10.43;;;;;;;;;;4939229;28;22761;-84
2022/07/25 04:52:42;;;;;;;12.27;10.87;;;28.00;99.90;;;;;;4924343;28;22227;-86
2022/07/25 04:55:08;;;;;;;14.50;12.27;;;28.70;99.90;;;;;;4934332;28;20573;-84
2022/07/25 04:57:33;;;;;;;11.90;10.23;;;28.80;99.90;;;;;;4939027;28;20896;-84
2022/07/25 04:59:59;;;;;;;12.83;11.37;;;29.20;99.90;;;;;;4945985;28;20968;-83
2022/07/25 05:02:25;;;;;;;12.30;11.17;;;29.30;98.50;;;;;;4942994;28;21229;-85
2022/07/25 05:04:51;;;;;;;12.47;11.20;;;29.70;97.70;;;;;;4939783;28;20203;-84
2022/07/25 05:07:17;;;;;;;11.20;10.03;;;29.60;96.60;;;;;;4942965;28;20631;-83
2022/07/25 05:09:43;;;;;;;11.70;10.60;;;29.80;96.10;;;;;;4937801;28;20458;-86
2022/07/25 05:12:08;;;;;;;10.93;9.90;;;30.20;96.00;;;;;;4948992;28;20267;-85
2022/07/25 05:14:34;;;;;;;11.90;10.53;;;;;;;;;;4944575;28;20446;-84
2022/07/25 05:17:00;;;;;;;11.40;10.40;;;30.60;93.10;;;;;;4944465;28;20813;-85
2022/07/25 05:19:25;;;;;;;11.43;10.23;;;30.60;92.30;;;;;;4945156;28;20431;-86
2022/07/25 05:21:51;;;;;;;11.00;10.00;;;31.10;91.60;;;;;;4939718;28;20697;-86
2022/07/25 05:24:17;;;;;;;11.10;9.47;;;32.50;90.70;;;;;;4942309;28;20188;-84
2022/07/25 05:26:42;;;;;;;11.80;10.60;;;32.30;86.60;;;;;;4943803;28;20224;-84
2022/07/25 05:29:09;;;;;;;11.10;10.10;;;32.30;84.10;;;;;;4945702;28;20226;-83
2022/07/25 05:31:35;;;;;;;11.43;10.33;;;32.60;82.60;;;;;;4943480;28;20231;-84
2022/07/25 05:34:01;;;;;;;11.83;10.63;;;33.20;81.00;;;;;;4940696;28;20448;-81
2022/07/25 05:36:26;;;;;;;11.37;10.37;;;34.50;78.90;;;;;;4931674;28;20696;-84
2022/07/25 05:38:52;;;;;;;11.73;10.60;;;33.20;76.90;;;;;;4934466;28;20188;-82
2022/07/25 05:41:18;;;;;;;10.73;9.73;;;33.10;75.10;;;;;;4940838;28;20204;-85
2022/07/25 05:43:46;;;;;;;12.47;11.20;;;33.60;76.30;;;;;;4933836;28;22126;-84
2022/07/25 05:46:12;;;;;;;12.20;11.00;;;35.00;73.20;;;;;;4936785;28;20217;-84
2022/07/25 05:48:38;;;;;;;14.03;12.80;;;36.90;69.20;;;;;;4935557;28;20549;-85
2022/07/25 05:51:03;;;;;;;17.77;13.80;;;38.70;67.40;;;;;;4936813;28;20461;-85
2022/07/25 05:53:29;;;;;;;16.23;14.93;;;39.40;65.10;;;;;;4944125;28;20179;-85
2022/07/25 05:55:55;;;;;;;17.60;15.80;;;;;;;;;;4948805;28;20237;-88
2022/07/25 05:58:21;;;;;;;17.60;16.20;;;40.80;56.80;;;;;;4952877;28;20278;-88
2022/07/25 06:00:46;;;;;;;18.83;17.07;;;41.50;55.40;;;;;;4952658;28;20458;-88
2022/07/25 06:03:12;;;;;;;18.13;16.73;;;;;;;;;;4951179;28;20582;-89
2022/07/25 06:05:38;;;;;;;19.87;18.37;;;42.00;51.50;;;;;;4960391;28;20710;-90
2022/07/25 06:08:04;;;;;;;18.87;17.20;;;41.70;53.10;;;;;;4968320;28;20191;-88
2022/07/25 06:10:29;;;;;;;19.87;18.37;;;40.20;52.90;;;;;;4956682;28;20228;-88
2022/07/25 06:12:55;;;;;;;18.80;17.40;;;40.10;53.40;;;;;;4956878;28;20904;-89
2022/07/25 06:15:21;;;;;;;18.77;17.20;;;;;;;;;;4966668;28;20297;-90
2022/07/25 06:17:46;;;;;;;17.73;16.47;;;;;;;;;;4949622;28;20213;-89
2022/07/25 06:20:12;;;;;;;19.27;17.97;;;41.50;52.50;;;;;;4960492;28;20454;-89
2022/07/25 06:22:39;;;;;;;18.70;17.20;;;42.60;49.70;;;;;;4957557;28;20208;-88
2022/07/25 06:25:05;;;;;;;18.23;17.00;;;42.40;49.50;;;;;;4956478;28;20931;-89
2022/07/25 06:27:31;;;;;;;18.33;17.13;;;;;;;;;;4964205;28;20440;-87
2022/07/25 06:29:57;;;;;;;19.27;17.90;;;;;;;;;;4957497;28;21445;-89
2022/07/25 06:32:23;;;;;;;19.43;17.97;;;;;;;;;;4960536;28;20460;-89
2022/07/25 06:34:48;;;;;;;19.20;17.90;;;42.40;40.80;;;;;;4957164;28;20492;-88
2022/07/25 06:37:14;;;;;;;19.23;17.97;;;;;;;;;;4958543;28;20860;-87
2022/07/25 06:39:41;;;;;;;18.63;17.43;;;;;;;;;;4958708;28;20184;-87
2022/07/25 06:42:07;;;;;;;18.37;17.13;;;;;;;;;;4963529;28;20458;-88
2022/07/25 06:44:33;;;;;;;17.57;16.37;;;39.00;42.00;;;;;;4959759;28;20442;-88
2022/07/25 06:47:04;;;;;;;18.87;17.57;;;39.20;46.80;;;;;;4964089;28;20463;-89
2022/07/25 06:49:30;;;;;;;18.17;16.83;;;;;;;;;;4964133;28;20439;-90
2022/07/25 06:51:56;;;;;;;17.77;16.37;;;;;;;;;;4955352;28;20492;-89
2022/07/25 06:54:22;;;;;;;17.17;15.97;;;38.50;45.50;;;;;;4953034;28;20456;-89
2022/07/25 06:56:48;;;;;;;18.87;17.27;;;39.50;45.40;;;;;;4960162;28;20438;-89
2022/07/25 06:59:13;;;;;;;17.00;15.90;;;39.10;44.60;;;;;;4951852;28;20206;-88
2022/07/25 07:01:39;;;;;;;16.20;15.10;;;38.90;45.80;;;;;;4962166;28;20213;-87
2022/07/25 07:04:05;;;;;;;17.67;16.47;;;;;;;;;;4958680;28;20192;-87
2022/07/25 07:06:31;;;;;;;18.40;17.20;;;;;;;;;;4951952;28;20212;-88
2022/07/25 07:08:57;;;;;;;18.43;16.87;;;;;;;;;;4955793;28;20461;-88
2022/07/25 07:11:23;;;;;;;17.37;15.87;;;37.90;47.10;;;;;;4939885;28;20464;-86
2022/07/25 07:13:48;;;;;;;17.53;16.03;;;37.80;49.50;;;;;;4957471;28;21175;-87
2022/07/25 07:16:14;;;;;;;18.30;16.70;;;;;;;;;;4951104;28;20192;-88
2022/07/25 07:18:40;;;;;;;18.10;16.27;;;39.50;46.30;;;;;;4953487;28;20219;-84
2022/07/25 07:21:06;;;;;;;17.43;16.30;;;40.60;45.90;;;;;;4953968;28;20502;-89
2022/07/25 07:23:32;;;;;;;18.77;17.17;;;40.80;44.80;;;;;;4952092;28;20191;-84
2022/07/25 07:25:57;;;;;;;18.73;17.23;;;41.50;43.80;;;;;;4949887;28;20214;-87
2022/07/25 07:28:23;;;;;;;19.00;17.80;;;;;;;;;;4957411;28;20191;-84
2022/07/25 07:30:49;;;;;;;20.27;18.67;;;40.30;42.80;;;;;;4949129;28;20218;-84
2022/07/25 07:33:14;;;;;;;18.60;17.27;;;39.70;45.00;;;;;;4952310;28;20533;-85
2022/07/25 07:35:43;;;;;;;19.37;18.07;;;41.20;44.60;;;;;;4956953;28;20274;-86
2022/07/25 07:38:09;;;;;;;20.53;18.77;;;;;;;;;;4958817;28;20216;-83
2022/07/25 07:40:35;;;;;;;19.30;18.00;;;;;;;;;;4950381;28;20548;-85
2022/07/25 07:43:02;;;;;;;19.40;17.93;;;40.60;43.50;;;;;;4945292;28;20434;-86
2022/07/25 07:45:29;;;;;;;20.23;18.77;;;42.80;42.80;;;;;;4949257;28;20212;-85
2022/07/25 07:47:57;;;;;;;20.70;19.40;;;43.10;40.80;;;;;;4955505;28;20517;-86
2022/07/25 07:50:25;;;;;;;20.60;19.23;;;43.50;39.80;;;;;;4960155;28;20435;-83
2022/07/25 07:52:52;;;;;;;23.00;21.43;;;43.50;40.30;;;;;;4953566;28;20435;-88
2022/07/25 07:58:03;;;;;;;24.90;23.50;;;;;;;;;;4954997;28;20435;-83
2022/07/25 08:00:31;;;;;;;26.33;24.80;;;47.70;34.00;;;;;;4960418;28;20431;-84
2022/07/25 08:02:58;;;;;;;27.10;25.70;;;48.50;33.10;;;;;;4953008;28;21675;-86
2022/07/25 08:05:25;;;;;;;27.80;26.10;;;48.10;32.20;;;;;;4954893;28;20478;-84
2022/07/25 08:07:53;;;;;;;25.73;24.23;;;47.40;33.40;;;;;;4945941;28;20516;-85
2022/07/25 08:10:23;;;;;;;25.90;24.13;;;47.30;33.90;;;;;;4959872;28;20455;-84
2022/07/25 08:12:49;;;;;;;25.90;24.20;;;;;;;;;;4950991;28;20440;-86
2022/07/25 08:15:16;;;;;;;26.43;24.97;;;;;;;;;;4953368;28;20439;-89
2022/07/25 08:17:42;;;;;;;20.37;18.80;;;43.60;35.10;;;;;;4959311;28;21098;-87
2022/07/25 08:20:08;;;;;;;27.17;25.67;;;44.30;36.70;;;;;;4945591;28;20561;-85
2022/07/25 08:22:41;;;;;;;24.77;23.27;;;41.40;36.00;;;;;;4959036;28;20854;-83
2022/07/25 08:25:08;;;;;;;18.13;17.03;;;41.30;36.50;;;;;;4959831;28;20806;-85
2022/07/25 08:27:35;;;;;;;19.30;16.67;;;;;;;;;;4959282;28;20540;-87
2022/07/25 08:30:01;;;;;;;16.87;15.67;;;42.40;38.70;;;;;;4955874;28;20427;-86
2022/07/25 08:32:30;;;;;;;17.67;16.27;;;42.30;37.60;;;;;;4957020;28;20463;-86
2022/07/25 08:34:56;;;;;;;16.97;15.33;;;42.60;39.00;;;;;;4954218;28;20444;-86
2022/07/25 08:37:22;;;;;;;21.60;20.20;;;;;;;;;;4955583;28;20883;-86
2022/07/25 08:39:48;;;;;;;23.00;21.70;;;40.90;38.40;;;;;;4955861;28;20184;-87
2022/07/25 08:42:14;;;;;;;21.30;19.70;;;39.30;39.40;;;;;;4967384;28;20470;-89
2022/07/25 08:44:45;;;;;;;21.50;19.97;;;39.90;40.60;;;;;;4952802;28;21050;-87
2022/07/25 08:47:14;;;;;;;20.97;19.67;;;39.90;41.00;;;;;;4950675;28;20456;-86
2022/07/25 08:49:40;;;;;;;21.07;19.57;;;40.80;41.50;;;;;;4961332;28;21042;-87
2022/07/25 08:52:07;;;;;;;20.50;19.10;;;41.30;40.90;;;;;;4968513;28;20676;-87
2022/07/25 08:54:34;;;;;;;21.27;19.83;;;41.30;39.60;;;;;;4961373;28;20462;-84
2022/07/25 08:56:59;;;;;;;23.40;22.10;;;41.50;40.60;;;;;;4942560;28;21908;-86
2022/07/25 08:59:25;;;;;;;23.43;21.80;;;42.60;38.90;;;;;;4949986;28;21249;-87
2022/07/25 09:01:50;;;;;;;23.43;21.93;;;40.90;39.50;;;;;;4944197;28;20218;-86
2022/07/25 09:04:17;;;;;;;22.17;20.77;;;;;;;;;;4946902;28;20189;-86
2022/07/25 09:06:50;;;;;;;23.57;22.07;;;36.40;41.20;;;;;;4944012;28;20211;-84
2022/07/25 09:09:16;;;;;;;20.27;18.70;;;;;;;;;;4949115;28;20435;-85
2022/07/25 09:11:42;;;;;;;17.77;16.47;;;37.80;42.30;;;;;;4947955;28;20581;-84
2022/07/25 09:14:11;;;;;;;18.93;17.73;;;38.70;43.90;;;;;;4947838;28;20539;-85
2022/07/25 09:16:42;;;;;;;18.50;17.40;;;38.10;41.70;;;;;;4957165;28;20296;-87
2022/07/25 09:19:13;;;;;;;18.47;17.07;;;37.80;42.00;;;;;;4952896;28;20435;-83
2022/07/25 09:21:40;;;;;;;19.40;17.93;;;37.80;42.60;;;;;;4964931;28;21007;-84
2022/07/25 09:24:17;;;;;;;19.13;17.93;;;37.20;43.20;;;;;;4949264;28;20442;-85
2022/07/25 09:26:43;;;;;;;19.20;17.70;;;36.40;43.20;;;;;;4951331;28;20505;-83
2022/07/25 09:29:20;;;;;;;18.80;17.50;;;36.30;43.90;;;;;;4948359;28;20515;-88
2022/07/25 09:31:46;;;;;;;18.67;17.47;;;37.40;45.10;;;;;;4943391;28;20443;-85
2022/07/25 09:34:11;;;;;;;18.00;16.70;;;37.70;43.40;;;;;;4949645;28;20453;-88
2022/07/25 09:36:49;;;;;;;19.30;17.90;;;36.50;44.10;;;;;;4945860;28;20436;-87
2022/07/25 09:39:15;;;;;;;18.00;16.70;;;36.70;44.20;;;;;;4937932;28;20190;-86
2022/07/25 09:41:41;;;;;;;18.30;17.00;;;37.20;44.90;;;;;;4950073;28;21265;-87
2022/07/25 09:44:21;;;;;;;17.43;15.93;;;37.40;44.50;;;;;;4953068;28;20733;-85
2022/07/25 09:46:48;;;;;;;17.87;16.70;;;36.70;44.30;;;;;;4958721;28;21282;-86
2022/07/25 09:49:13;;;;;;;19.20;17.67;;;37.50;45.10;;;;;;4958347;28;21301;-86
2022/07/25 09:51:40;;;;;;;18.47;17.23;;;;;;;;;;4950872;28;20450;-86
2022/07/25 09:54:05;;;;;;;16.70;15.60;;;36.60;44.50;;;;;;4953101;28;20201;-85
2022/07/25 09:56:34;;;;;;;17.60;16.30;;;38.40;42.60;;;;;;4962935;28;20868;-86
2022/07/25 09:59:00;;;;;;;18.40;17.20;;;38.40;43.00;;;;;;4970970;28;20217;-86
2022/07/25 10:01:33;;;;;;;17.83;16.43;;;38.10;42.50;;;;;;4964883;28;20436;-85
2022/07/25 10:04:20;;;;;;;17.90;16.80;;;38.30;43.20;;;;;;4964501;28;20435;-88
2022/07/25 10:07:03;;;;;;;18.07;16.77;;;37.60;42.20;;;;;;4956790;28;20468;-85
2022/07/25 10:09:29;;;;;;;18.07;16.60;;;37.90;43.00;;;;;;4958736;28;21186;-84
2022/07/25 10:12:09;;;;;;;17.70;16.53;;;37.90;43.40;;;;;;4964215;28;20461;-86
2022/07/25 10:14:37;;;;;;;16.90;15.60;;;37.00;41.90;;;;;;4966962;28;20523;-85
2022/07/25 10:17:03;;;;;;;17.37;16.00;;;36.80;42.80;;;;;;4958935;28;20439;-87
2022/07/25 10:19:46;;;;;;;17.43;16.23;;;38.20;44.10;;;;;;4953077;28;20474;-84
2022/07/25 10:22:13;;;;;;;18.53;17.10;;;38.50;43.30;;;;;;4968080;28;20463;-86
2022/07/25 10:24:44;;;;;;;17.07;15.97;;;39.40;41.40;;;;;;4955377;28;20450;-87
2022/07/25 10:27:12;;;;;;;18.33;17.10;;;42.60;37.70;;;;;;4959121;28;20458;-88
2022/07/25 10:29:39;;;;;;;18.67;17.60;;;42.60;38.20;;;;;;4960924;28;20467;-88
2022/07/25 10:32:10;;;;;;;19.03;17.80;;;40.60;37.30;;;;;;4962013;28;20455;-84
2022/07/25 10:34:37;;;;;;;17.73;16.63;;;39.40;39.20;;;;;;4963121;28;20443;-88
2022/07/25 10:37:15;;;;;;;18.10;16.90;;;38.30;37.90;;;;;;4957536;28;20484;-85
2022/07/25 10:39:43;;;;;;;18.03;16.83;;;36.20;41.40;;;;;;4959755;28;21260;-88
2022/07/25 10:42:16;;;;;;;16.47;15.43;;;35.40;44.00;;;;;;4963755;28;21271;-85
2022/07/25 10:44:52;;;;;;;16.30;14.70;;;35.10;45.50;;;;;;4983463;28;20444;-84
2022/07/25 10:47:26;;;;;;;16.40;15.30;;;35.20;45.30;;;;;;4952584;28;20478;-85
2022/07/25 10:50:02;;;;;;;15.03;14.00;;;35.50;45.50;;;;;;4950195;28;20442;-83
2022/07/25 10:52:29;;;;;;;14.73;13.50;;;35.70;45.40;;;;;;4952693;28;20474;-86
2022/07/25 10:54:59;;;;;;;15.50;14.30;;;35.40;42.10;;;;;;4954745;28;20436;-85
2022/07/25 10:57:26;;;;;;;15.47;14.47;;;35.30;43.00;;;;;;4953427;28;20457;-83
2022/07/25 10:59:52;;;;;;;15.50;14.40;;;34.90;43.80;;;;;;4958462;28;20442;-84
2022/07/25 11:02:18;;;;;;;14.97;14.07;;;35.00;43.50;;;;;;4960418;28;20463;-84
2022/07/25 11:05:01;;;;;;;15.10;14.00;;;35.20;43.40;;;;;;4963677;28;20447;-83
2022/07/25 11:07:27;;;;;;;15.53;14.53;;;36.00;43.70;;;;;;4968156;28;20451;-85
2022/07/25 11:10:01;;;;;;;16.80;15.70;;;35.00;42.80;;;;;;4961439;28;21037;-86
2022/07/25 11:12:27;;;;;;;16.00;14.90;;;36.30;45.70;;;;;;4965627;28;20469;-84
2022/07/25 11:15:04;;;;;;;15.43;14.33;;;34.90;43.60;;;;;;4967800;28;20447;-84
2022/07/25 11:17:29;;;;;;;16.77;15.27;;;34.90;44.30;;;;;;4956013;28;20435;-87
2022/07/25 11:20:04;;;;;;;13.50;12.43;;;36.00;44.80;;;;;;4954438;28;20444;-85
2022/07/25 11:22:31;;;;;;;13.63;12.73;;;35.00;44.60;;;;;;4957775;28;20206;-86
2022/07/25 11:24:57;;;;;;;13.67;12.67;;;;;;;;;;4954827;28;20529;-88
2022/07/25 11:27:26;;;;;;;14.20;13.10;;;35.20;41.70;;;;;;4952994;28;20478;-87
2022/07/25 11:29:52;;;;;;;14.10;13.00;;;;;;;;;;4954439;28;20477;-87
2022/07/25 11:32:18;;;;;;;13.80;12.77;;;34.10;42.80;;;;;;4956064;28;20486;-85
2022/07/25 11:34:48;;;;;;;12.23;11.23;;;33.90;44.70;;;;;;4955863;28;20447;-85
2022/07/25 11:37:14;;;;;;;13.67;12.50;;;33.50;45.20;;;;;;4966627;28;21186;-84
2022/07/25 11:39:41;;;;;;;12.87;11.90;;;33.40;45.70;;;;;;4952976;28;20485;-84
2022/07/25 11:42:16;;;;;;;13.20;12.20;;;33.50;46.30;;;;;;4952158;28;20491;-83
2022/07/25 11:44:48;;;;;;;14.03;12.83;;;33.50;45.80;;;;;;4959088;28;20489;-84
2022/07/25 11:47:27;;;;;;;14.13;12.90;;;33.70;46.40;;;;;;4954897;28;20480;-85
2022/07/25 11:49:55;;;;;;;12.47;11.57;;;33.80;46.10;;;;;;4952115;28;20804;-86
2022/07/25 11:52:24;;;;;;;13.43;11.93;;;34.00;46.50;;;;;;4959455;28;20603;-85
2022/07/25 11:54:55;;;;;;;14.07;12.63;;;34.40;45.50;;;;;;4946585;28;20445;-85
2022/07/25 11:57:24;;;;;;;12.90;12.00;;;34.10;44.60;;;;;;4944996;28;20449;-86
2022/07/25 11:59:50;;;;;;;12.90;12.00;;;33.50;45.40;;;;;;4942810;28;20458;-84
2022/07/25 12:02:24;;;;;;;13.40;12.40;;;34.10;47.10;;;;;;4952601;28;21010;-85
2022/07/25 12:05:04;;;;;;;13.80;12.50;;;33.40;46.30;;;;;;4947570;28;20452;-87
2022/07/25 12:07:43;;;;;;;13.10;12.07;;;33.60;47.40;;;;;;4955294;28;20449;-87
2022/07/25 12:10:21;;;;;;;13.27;12.30;;;33.50;46.80;;;;;;4957216;28;20444;-83
2022/07/25 12:12:55;;;;;;;13.00;12.00;;;33.80;46.80;;;;;;4949892;28;20472;-86
2022/07/25 12:15:20;;;;;;;11.73;11.00;;;33.70;46.80;;;;;;4946477;28;21072;-84
2022/07/25 12:17:46;;;;;;;14.70;13.70;;;33.60;47.60;;;;;;4955166;28;20444;-86
2022/07/25 12:20:14;;;;;;;14.13;12.80;;;34.10;48.00;;;;;;4947640;28;20187;-88
2022/07/25 12:22:40;;;;;;;14.30;13.20;;;33.90;48.10;;;;;;4945688;28;20544;-87
2022/07/25 12:25:06;;;;;;;14.07;12.70;;;34.30;47.50;;;;;;4943149;28;20443;-86
2022/07/25 12:27:32;;;;;;;14.83;13.63;;;34.00;47.90;;;;;;4953422;28;21337;-87
2022/07/25 12:29:57;;;;;;;15.00;13.53;;;34.20;47.20;;;;;;4962286;28;21872;-88
2022/07/25 12:32:23;;;;;;;14.80;13.30;;;34.00;47.90;;;;;;4950023;28;20208;-84
2022/07/25 12:34:49;;;;;;;15.13;13.83;;;34.00;49.20;;;;;;4944317;28;20271;-84
2022/07/25 12:37:14;;;;;;;15.20;13.90;;;33.70;48.90;;;;;;4943405;28;20193;-86
2022/07/25 12:39:40;;;;;;;16.07;14.63;;;33.90;48.20;;;;;;4945264;28;20197;-88